Biggs, Illinois
Current Conditions -  °F | °C
As of 7:55 AM on Friday 31 Oct 2014 (Local Time) from KAAA Reporting Station
Broken Clouds Broken Clouds  
Wind Chill: 30°   Ceiling: 6000
Heat Index: 38°   Visibility: 10mi
Dew Point: 26°   Wind: 14mph
Humidity: 60%   Direction: 340°NNW
Pressure: 30.19"   Gusts: 22mph
Location:  40.2326°N, 89.8458°W
Report Text: KAAA 311255Z AUTO 34012G19KT 10SM SCT044 BKN060 04/M04 A3019 RMK AO2 T00361036
Loading
Personal Weather Stations






























Interactive Weather Map
Tropical Storm Tracking
New forecast layout! Learn more

10-Day Weather Forecast

Advertisements
Track Severe Weather on mobile